Time,TemperatureF,DewpointF,PressureIn,WindDirection,WindDirectionDegrees,WindSpeedMPH,WindSpeedGustMPH,Humidity,HourlyPrecipIn,Conditions,Clouds,dailyrainin,SoftwareType,DateUTC
2013-05-15 00:03:00,44.0,39.0,29.68,SSW,202,0.0,0.0,84,0.00,,,-99.99,,2013-05-15 04:03:00,
2013-05-15 00:12:00,44.0,39.0,29.68,SSW,202,0.0,0.0,84,0.00,,,-99.99,,2013-05-15 04:12:00,
2013-05-15 00:24:00,44.0,40.0,29.68,SSW,202,0.0,0.0,85,0.00,,,-99.99,,2013-05-15 04:24:00,
2013-05-15 00:33:00,44.0,40.0,29.68,SSW,205,0.0,0.0,86,0.00,,,-99.99,,2013-05-15 04:33:00,
2013-05-15 00:42:00,44.0,40.0,29.68,SSW,205,0.0,0.0,86,0.00,,,-99.99,,2013-05-15 04:42:00,
2013-05-15 00:52:00,43.0,39.0,29.68,SW,225,0.0,0.0,86,0.00,,,-99.99,,2013-05-15 04:52:00,
2013-05-15 01:02:00,43.0,40.0,29.68,SW,225,0.0,0.0,88,0.00,,,-99.99,,2013-05-15 05:02:00,
2013-05-15 01:12:00,42.0,39.0,29.68,SW,225,0.0,0.0,88,0.00,,,-99.99,,2013-05-15 05:12:00,
2013-05-15 01:22:00,42.0,39.0,29.68,SW,225,0.0,0.0,88,0.00,,,-99.99,,2013-05-15 05:22:00,
2013-05-15 01:32:00,42.0,40.0,29.68,SW,225,0.0,0.0,91,0.00,,,-99.99,,2013-05-15 05:32:00,
2013-05-15 01:42:00,42.0,40.0,29.68,SW,225,0.0,0.0,91,0.00,,,-99.99,,2013-05-15 05:42:00,
2013-05-15 01:52:00,41.0,39.0,29.68,SW,225,0.0,0.0,91,0.00,,,-99.99,,2013-05-15 05:52:00,
2013-05-15 02:02:00,41.0,39.0,29.68,SW,225,0.0,0.0,92,0.00,,,-99.99,,2013-05-15 06:02:00,
2013-05-15 02:11:00,41.0,39.0,29.68,SW,225,0.0,0.0,92,0.00,,,-99.99,,2013-05-15 06:11:00,
2013-05-15 02:21:00,41.0,39.0,29.68,SW,225,0.0,0.0,92,0.00,,,-99.99,,2013-05-15 06:21:00,
2013-05-15 02:32:00,41.0,40.0,29.68,WSW,247,0.0,0.0,95,0.00,,,-99.99,,2013-05-15 06:32:00,
2013-05-15 02:42:00,41.0,40.0,29.68,SW,225,0.0,0.0,95,0.00,,,-99.99,,2013-05-15 06:42:00,
2013-05-15 02:52:00,41.0,40.0,29.68,SW,225,0.0,0.0,95,0.00,,,-99.99,,2013-05-15 06:52:00,
2013-05-15 03:01:00,41.0,40.0,29.66,SSW,202,0.0,0.0,96,0.00,,,-99.99,,2013-05-15 07:01:00,
2013-05-15 03:11:00,41.0,40.0,29.66,SSW,202,0.0,0.0,96,0.00,,,-99.99,,2013-05-15 07:11:00,
2013-05-15 03:22:00,41.0,40.0,29.66,SSW,202,0.0,0.0,96,0.00,,,-99.99,,2013-05-15 07:22:00,
2013-05-15 03:32:00,43.0,41.0,29.65,SW,224,0.0,0.0,92,0.00,,,-99.99,,2013-05-15 07:32:00,
2013-05-15 03:41:00,43.0,41.0,29.65,SW,224,0.0,0.0,92,0.00,,,-99.99,,2013-05-15 07:41:00,
2013-05-15 03:52:00,44.0,41.0,29.65,SW,224,0.0,1.0,90,0.00,,,-99.99,,2013-05-15 07:52:00,
2013-05-15 04:02:00,45.0,41.0,29.66,SW,226,0.0,0.0,87,0.00,,,-99.99,,2013-05-15 08:02:00,
2013-05-15 04:12:00,46.0,41.0,29.65,SW,233,0.0,1.0,82,0.00,,,-99.99,,2013-05-15 08:12:00,
2013-05-15 04:21:00,46.0,41.0,29.65,SW,233,0.0,1.0,82,0.00,,,-99.99,,2013-05-15 08:21:00,
2013-05-15 04:32:00,46.0,39.0,29.65,WSW,246,0.0,1.0,77,0.00,,,-99.99,,2013-05-15 08:32:00,
2013-05-15 04:42:00,46.0,40.0,29.65,SW,228,0.0,0.0,78,0.00,,,-99.99,,2013-05-15 08:42:00,
2013-05-15 04:53:00,46.0,40.0,29.65,SW,228,0.0,0.0,78,0.00,,,-99.99,,2013-05-15 08:53:00,
2013-05-15 05:01:00,46.0,40.0,29.65,SW,228,0.0,1.0,79,0.00,,,-99.99,,2013-05-15 09:01:00,
2013-05-15 05:11:00,46.0,40.0,29.65,SSW,212,0.0,1.0,80,0.00,,,-99.99,,2013-05-15 09:11:00,
2013-05-15 05:21:00,46.0,40.0,29.65,SSW,212,0.0,1.0,80,0.00,,,-99.99,,2013-05-15 09:21:00,
2013-05-15 05:33:00,47.0,41.0,29.65,SW,218,0.0,2.0,81,0.00,,,-99.99,,2013-05-15 09:33:00,
2013-05-15 05:42:00,48.0,42.0,29.65,SW,235,1.0,3.0,79,0.00,,,-99.99,,2013-05-15 09:42:00,
2013-05-15 05:53:00,48.0,42.0,29.65,SW,235,1.0,3.0,79,0.00,,,-99.99,,2013-05-15 09:53:00,
2013-05-15 06:02:00,49.0,42.0,29.65,SW,223,1.0,3.0,77,0.00,,,-99.99,,2013-05-15 10:02:00,
2013-05-15 06:13:00,49.0,42.0,29.65,SW,234,1.0,3.0,76,0.00,,,-99.99,,2013-05-15 10:13:00,
2013-05-15 06:22:00,49.0,42.0,29.65,SW,234,1.0,3.0,76,0.00,,,-99.99,,2013-05-15 10:22:00,
2013-05-15 06:32:00,50.0,43.0,29.65,SW,222,0.0,2.0,76,0.00,,,-99.99,,2013-05-15 10:32:00,
2013-05-15 06:42:00,50.0,43.0,29.65,SW,233,0.0,2.0,76,0.00,,,-99.99,,2013-05-15 10:42:00,
2013-05-15 06:52:00,50.0,43.0,29.65,SW,233,0.0,2.0,76,0.00,,,-99.99,,2013-05-15 10:52:00,
2013-05-15 07:10:00,51.0,43.0,29.65,SSW,207,0.0,1.0,75,0.00,,,-99.99,,2013-05-15 11:10:00,
2013-05-15 07:18:00,52.0,44.0,29.65,SW,231,0.0,1.0,75,0.00,,,-99.99,,2013-05-15 11:18:00,
2013-05-15 07:27:00,52.0,44.0,29.65,SW,231,0.0,1.0,75,0.00,,,-99.99,,2013-05-15 11:27:00,
2013-05-15 07:47:00,54.0,47.0,29.65,SW,230,2.0,4.0,77,0.00,,,-99.99,,2013-05-15 11:47:00,
2013-05-15 08:08:00,55.0,48.0,29.65,WSW,242,1.0,3.0,78,0.00,,,-99.99,,2013-05-15 12:08:00,
2013-05-15 08:15:00,55.0,49.0,29.65,SW,217,2.0,4.0,79,0.00,,,-99.99,,2013-05-15 12:15:00,
2013-05-15 08:29:00,55.0,49.0,29.65,SW,217,2.0,4.0,79,0.00,,,-99.99,,2013-05-15 12:29:00,
2013-05-15 08:36:00,57.0,50.0,29.65,SW,232,2.0,4.0,77,0.00,,,-99.99,,2013-05-15 12:36:00,
2013-05-15 08:47:00,57.0,50.0,29.65,SW,232,2.0,4.0,77,0.00,,,-99.99,,2013-05-15 12:47:00,
2013-05-15 08:57:00,62.0,51.0,29.65,SW,225,2.0,5.0,68,0.00,,,-99.99,,2013-05-15 12:57:00,
2013-05-15 09:09:00,65.0,50.0,29.63,WSW,239,3.0,5.0,58,0.00,,,-99.99,,2013-05-15 13:09:00,
2013-05-15 09:18:00,67.0,49.0,29.62,SW,234,3.0,5.0,52,0.00,,,-99.99,,2013-05-15 13:18:00,
2013-05-15 09:26:00,67.0,49.0,29.62,SW,234,3.0,5.0,52,0.00,,,-99.99,,2013-05-15 13:26:00,
2013-05-15 09:36:00,68.0,47.0,29.62,SW,214,3.0,6.0,47,0.00,,,-99.99,,2013-05-15 13:36:00,
2013-05-15 10:07:00,68.0,46.0,29.62,SW,224,3.0,7.0,45,0.00,,,-99.99,,2013-05-15 14:07:00,
2013-05-15 10:14:00,70.0,43.0,29.62,SSW,205,3.0,7.0,38,0.00,,,-99.99,,2013-05-15 14:14:00,
2013-05-15 10:27:00,70.0,43.0,29.62,SSW,205,3.0,7.0,38,0.00,,,-99.99,,2013-05-15 14:27:00,
2013-05-15 10:37:00,69.0,43.0,29.62,SW,222,3.0,8.0,39,0.00,,,-99.99,,2013-05-15 14:37:00,
2013-05-15 10:59:00,71.0,45.0,29.62,WSW,239,3.0,6.0,39,0.00,,,-99.99,,2013-05-15 14:59:00,
2013-05-15 11:08:00,67.0,43.0,29.62,WSW,240,3.0,9.0,41,0.00,,,-99.99,,2013-05-15 15:08:00,
2013-05-15 11:16:00,64.0,42.0,29.62,SW,230,3.0,7.0,44,0.00,,,-99.99,,2013-05-15 15:16:00,
2013-05-15 11:47:00,62.0,40.0,29.62,WSW,237,2.0,9.0,44,0.00,,,-99.99,,2013-05-15 15:47:00,
2013-05-15 12:02:00,62.0,40.0,29.62,WSW,237,2.0,9.0,44,0.00,,,-99.99,,2013-05-15 16:02:00,
2013-05-15 12:10:00,59.0,40.0,29.62,WSW,243,3.0,6.0,50,0.00,,,-99.99,,2013-05-15 16:10:00,
2013-05-15 12:22:00,59.0,45.0,29.59,SSW,198,3.0,6.0,59,0.00,,,-99.99,,2013-05-15 16:22:00,
2013-05-15 12:29:00,59.0,45.0,29.59,SSW,198,3.0,6.0,59,0.00,,,-99.99,,2013-05-15 16:29:00,
2013-05-15 12:38:00,61.0,48.0,29.59,SSW,210,4.0,8.0,62,0.00,,,-99.99,,2013-05-15 16:38:00,
2013-05-15 13:00:00,60.0,48.0,29.59,SSW,207,3.0,7.0,64,0.00,,,-99.99,,2013-05-15 17:00:00,
2013-05-15 13:19:00,61.0,52.0,29.56,South,183,4.0,8.0,71,0.00,,,-99.99,,2013-05-15 17:19:00,
2013-05-15 13:27:00,61.0,52.0,29.56,South,183,4.0,8.0,71,0.00,,,-99.99,,2013-05-15 17:27:00,
2013-05-15 13:36:00,61.0,52.0,29.56,SSW,210,3.0,6.0,72,0.00,,,-99.99,,2013-05-15 17:36:00,
2013-05-15 13:46:00,61.0,52.0,29.56,SSW,210,3.0,6.0,72,0.00,,,-99.99,,2013-05-15 17:46:00,
2013-05-15 13:59:00,62.0,52.0,29.56,SSW,204,3.0,8.0,69,0.00,,,-99.99,,2013-05-15 17:59:00,
2013-05-15 14:07:00,65.0,52.0,29.56,WSW,237,4.0,9.0,63,0.00,,,-99.99,,2013-05-15 18:07:00,
2013-05-15 14:16:00,67.0,53.0,29.56,SW,217,4.0,8.0,60,0.00,,,-99.99,,2013-05-15 18:16:00,
2013-05-15 14:27:00,67.0,53.0,29.56,SW,217,4.0,8.0,60,0.00,,,-99.99,,2013-05-15 18:27:00,
2013-05-15 14:37:00,64.0,53.0,29.56,SW,222,4.0,7.0,67,0.00,,,-99.99,,2013-05-15 18:37:00,
2013-05-15 14:46:00,64.0,53.0,29.56,SW,222,4.0,7.0,67,0.00,,,-99.99,,2013-05-15 18:46:00,
2013-05-15 14:57:00,64.0,54.0,29.54,SW,231,3.0,7.0,69,0.00,,,-99.99,,2013-05-15 18:57:00,
2013-05-15 15:09:00,64.0,53.0,29.53,WSW,244,3.0,8.0,68,0.00,,,-99.99,,2013-05-15 19:09:00,
2013-05-15 15:15:00,64.0,53.0,29.53,WSW,244,3.0,8.0,68,0.00,,,-99.99,,2013-05-15 19:15:00,
2013-05-15 15:30:00,64.0,53.0,29.53,WSW,244,3.0,8.0,68,0.00,,,-99.99,,2013-05-15 19:30:00,
2013-05-15 15:38:00,62.0,53.0,29.50,WSW,237,3.0,7.0,73,0.00,,,-99.99,,2013-05-15 19:38:00,
2013-05-15 15:45:00,62.0,53.0,29.50,WSW,237,3.0,7.0,73,0.00,,,-99.99,,2013-05-15 19:45:00,
2013-05-15 15:59:00,64.0,53.0,29.50,SSW,211,3.0,7.0,67,0.00,,,-99.99,,2013-05-15 19:59:00,
2013-05-15 16:18:00,65.0,53.0,29.47,WSW,241,3.0,9.0,64,0.00,,,-99.99,,2013-05-15 20:18:00,
2013-05-15 16:38:00,64.0,53.0,29.47,SW,218,4.0,8.0,67,0.00,,,-99.99,,2013-05-15 20:38:00,
2013-05-15 16:46:00,64.0,53.0,29.47,SW,218,4.0,8.0,67,0.00,,,-99.99,,2013-05-15 20:46:00,
2013-05-15 17:08:00,64.0,53.0,29.44,SW,235,3.0,6.0,67,0.00,,,-99.99,,2013-05-15 21:08:00,
2013-05-15 17:19:00,65.0,53.0,29.45,SW,214,2.0,6.0,65,0.00,,,-99.99,,2013-05-15 21:19:00,
2013-05-15 17:28:00,65.0,53.0,29.45,SW,214,2.0,6.0,65,0.00,,,-99.99,,2013-05-15 21:28:00,
2013-05-15 17:40:00,64.0,53.0,29.47,SW,233,3.0,7.0,68,0.00,,,-99.99,,2013-05-15 21:40:00,
2013-05-15 17:50:00,64.0,53.0,29.47,SW,233,3.0,7.0,68,0.00,,,-99.99,,2013-05-15 21:50:00,
2013-05-15 18:00:00,67.0,54.0,29.47,SW,230,2.0,7.0,62,0.00,,,-99.99,,2013-05-15 22:00:00,
2013-05-15 18:10:00,67.0,53.0,29.44,SSW,212,3.0,8.0,61,0.00,,,-99.99,,2013-05-15 22:10:00,
2013-05-15 18:18:00,67.0,53.0,29.44,SSW,212,3.0,8.0,61,0.00,,,-99.99,,2013-05-15 22:18:00,
2013-05-15 18:29:00,67.0,54.0,29.44,WSW,240,3.0,6.0,63,0.00,,,-99.99,,2013-05-15 22:29:00,
2013-05-15 18:40:00,65.0,53.0,29.44,SW,228,2.0,6.0,66,0.00,,,-99.99,,2013-05-15 22:40:00,
2013-05-15 18:48:00,65.0,53.0,29.44,SW,228,2.0,6.0,66,0.00,,,-99.99,,2013-05-15 22:48:00,
2013-05-15 18:54:00,64.0,54.0,29.44,WSW,255,2.0,3.0,69,0.00,,,-99.99,,2013-05-15 22:54:00,
2013-05-15 19:15:00,64.0,54.0,29.44,SSW,212,2.0,6.0,70,0.00,,,-99.99,,2013-05-15 23:15:00,
2013-05-15 19:28:00,64.0,54.0,29.44,SW,230,2.0,4.0,71,0.00,,,-99.99,,2013-05-15 23:28:00,
2013-05-15 19:38:00,64.0,54.0,29.44,SW,227,2.0,4.0,70,0.00,,,-99.99,,2013-05-15 23:38:00,
2013-05-15 19:49:00,64.0,54.0,29.44,SW,227,2.0,4.0,70,0.00,,,-99.99,,2013-05-15 23:49:00,
2013-05-15 20:06:00,61.0,53.0,29.44,SW,221,1.0,3.0,76,0.00,,,-99.99,,2013-05-16 00:06:00,
2013-05-15 20:17:00,59.0,53.0,29.44,SW,232,2.0,3.0,81,0.00,,,-99.99,,2013-05-16 00:17:00,
2013-05-15 20:35:00,58.0,53.0,29.44,SW,220,2.0,4.0,83,0.00,,,-99.99,,2013-05-16 00:35:00,
2013-05-15 20:49:00,56.0,52.0,29.44,SW,231,1.0,4.0,87,0.00,,,-99.99,,2013-05-16 00:49:00,
2013-05-15 20:58:00,56.0,52.0,29.44,SW,231,1.0,4.0,87,0.00,,,-99.99,,2013-05-16 00:58:00,
2013-05-15 21:18:00,55.0,52.0,29.44,SW,235,1.0,3.0,90,0.00,,,-99.99,,2013-05-16 01:18:00,
2013-05-15 21:29:00,55.0,52.0,29.44,SW,235,1.0,3.0,90,0.00,,,-99.99,,2013-05-16 01:29:00,
2013-05-15 21:36:00,55.0,52.0,29.44,SW,236,1.0,3.0,91,0.00,,,-99.99,,2013-05-16 01:36:00,
2013-05-15 21:48:00,55.0,52.0,29.44,SW,236,1.0,3.0,91,0.00,,,-99.99,,2013-05-16 01:48:00,
2013-05-15 22:00:00,55.0,53.0,29.44,SW,233,1.0,3.0,92,0.00,,,-99.99,,2013-05-16 02:00:00,
2013-05-15 22:07:00,55.0,53.0,29.44,SW,232,0.0,2.0,92,0.00,,,-99.99,,2013-05-16 02:07:00,
2013-05-15 22:28:00,55.0,52.0,29.44,SW,230,1.0,2.0,91,0.00,,,-99.99,,2013-05-16 02:28:00,
2013-05-15 22:37:00,55.0,52.0,29.44,SW,232,1.0,2.0,91,0.00,,,-99.99,,2013-05-16 02:37:00,
2013-05-15 22:46:00,55.0,52.0,29.44,SW,232,1.0,2.0,91,0.00,,,-99.99,,2013-05-16 02:46:00,
2013-05-15 22:55:00,55.0,52.0,29.44,SW,232,1.0,2.0,91,0.00,,,-99.99,,2013-05-16 02:55:00,
2013-05-15 23:07:00,56.0,54.0,29.44,SSW,202,1.0,3.0,92,0.00,,,-99.99,,2013-05-16 03:07:00,
2013-05-15 23:16:00,55.0,54.0,29.44,SW,216,0.0,1.0,95,0.00,,,-99.99,,2013-05-16 03:16:00,
2013-05-15 23:25:00,55.0,54.0,29.44,SW,216,0.0,1.0,95,0.00,,,-99.99,,2013-05-16 03:25:00,
2013-05-15 23:45:00,55.0,54.0,29.44,WSW,247,0.0,0.0,97,0.00,,,-99.99,,2013-05-16 03:45:00,
2013-05-15 23:57:00,55.0,54.0,29.44,SW,220,0.0,0.0,97,0.00,,,-99.99,,2013-05-16 03:57:00,